sensor_id;sensor_type;location;lat;lon;timestamp;pressure;altitude;pressure_sealevel;temperature;humidity
15646;BME280;7922;43.622;1.476;2023-05-12T00:00:49;100279.22;;;10.42;99.98
15646;BME280;7922;43.622;1.476;2023-05-12T00:03:14;100283.00;;;10.36;99.49
15646;BME280;7922;43.622;1.476;2023-05-12T00:05:39;100198.09;;;9.92;99.88
15646;BME280;7922;43.622;1.476;2023-05-12T00:08:05;100255.13;;;10.26;99.97
15646;BME280;7922;43.622;1.476;2023-05-12T00:10:30;100260.59;;;10.20;99.43
15646;BME280;7922;43.622;1.476;2023-05-12T00:12:55;100266.91;;;10.16;99.04
15646;BME280;7922;43.622;1.476;2023-05-12T00:15:21;100242.69;;;10.03;100.00
15646;BME280;7922;43.622;1.476;2023-05-12T00:17:46;100276.47;;;10.20;99.59
15646;BME280;7922;43.622;1.476;2023-05-12T00:20:12;100256.13;;;9.97;98.23
15646;BME280;7922;43.622;1.476;2023-05-12T00:22:38;100274.66;;;10.22;99.71
15646;BME280;7922;43.622;1.476;2023-05-12T00:25:04;100211.81;;;9.78;99.74
15646;BME280;7922;43.622;1.476;2023-05-12T00:27:29;100180.75;;;9.58;99.00
15646;BME280;7922;43.622;1.476;2023-05-12T00:29:54;100220.56;;;9.80;99.22
15646;BME280;7922;43.622;1.476;2023-05-12T00:32:19;100187.91;;;9.56;99.37
15646;BME280;7922;43.622;1.476;2023-05-12T00:34:45;100219.06;;;9.73;99.00
15646;BME280;7922;43.622;1.476;2023-05-12T00:37:10;100229.56;;;9.75;99.70
15646;BME280;7922;43.622;1.476;2023-05-12T00:39:35;100238.91;;;9.85;100.00
15646;BME280;7922;43.622;1.476;2023-05-12T00:42:00;100215.41;;;9.76;99.69
15646;BME280;7922;43.622;1.476;2023-05-12T00:44:26;100195.28;;;9.72;100.00
15646;BME280;7922;43.622;1.476;2023-05-12T00:46:51;100175.44;;;9.60;100.00
15646;BME280;7922;43.622;1.476;2023-05-12T00:49:17;100176.19;;;9.63;99.66
15646;BME280;7922;43.622;1.476;2023-05-12T00:51:42;100186.41;;;9.73;100.00
15646;BME280;7922;43.622;1.476;2023-05-12T00:54:08;100249.63;;;10.05;100.00
15646;BME280;7922;43.622;1.476;2023-05-12T00:56:34;100240.84;;;10.05;100.00
15646;BME280;7922;43.622;1.476;2023-05-12T00:59:00;100172.63;;;9.64;99.46
15646;BME280;7922;43.622;1.476;2023-05-12T01:01:25;100166.03;;;9.51;99.38
15646;BME280;7922;43.622;1.476;2023-05-12T01:03:51;100162.25;;;9.58;99.87
15646;BME280;7922;43.622;1.476;2023-05-12T01:06:37;100207.06;;;9.88;99.22
15646;BME280;7922;43.622;1.476;2023-05-12T01:09:03;100220.88;;;9.96;99.58
15646;BME280;7922;43.622;1.476;2023-05-12T01:11:28;100206.25;;;9.86;100.00
15646;BME280;7922;43.622;1.476;2023-05-12T01:13:53;100140.47;;;9.52;100.00
15646;BME280;7922;43.622;1.476;2023-05-12T01:16:22;100206.88;;;9.93;100.00
15646;BME280;7922;43.622;1.476;2023-05-12T01:18:53;100199.25;;;9.83;99.60
15646;BME280;7922;43.622;1.476;2023-05-12T01:21:20;100130.19;;;9.43;98.74
15646;BME280;7922;43.622;1.476;2023-05-12T01:23:58;100197.72;;;9.78;99.48
15646;BME280;7922;43.622;1.476;2023-05-12T01:26:26;100203.00;;;9.78;99.50
15646;BME280;7922;43.622;1.476;2023-05-12T01:28:52;100229.50;;;10.01;99.67
15646;BME280;7922;43.622;1.476;2023-05-12T01:31:18;100202.91;;;9.81;99.81
15646;BME280;7922;43.622;1.476;2023-05-12T01:33:44;100158.09;;;9.51;99.56
15646;BME280;7922;43.622;1.476;2023-05-12T01:36:09;100154.56;;;9.52;100.00
15646;BME280;7922;43.622;1.476;2023-05-12T01:38:34;100150.00;;;9.56;100.00
15646;BME280;7922;43.622;1.476;2023-05-12T01:41:00;100131.22;;;9.38;100.00
15646;BME280;7922;43.622;1.476;2023-05-12T01:43:25;100162.03;;;9.64;100.00
15646;BME280;7922;43.622;1.476;2023-05-12T01:45:50;100201.41;;;9.97;100.00
15646;BME280;7922;43.622;1.476;2023-05-12T01:48:15;100154.56;;;9.76;100.00
15646;BME280;7922;43.622;1.476;2023-05-12T01:50:41;100140.31;;;9.80;100.00
15646;BME280;7922;43.622;1.476;2023-05-12T01:53:06;100148.13;;;9.83;100.00
15646;BME280;7922;43.622;1.476;2023-05-12T01:55:31;100184.50;;;10.01;100.00
15646;BME280;7922;43.622;1.476;2023-05-12T01:57:57;100149.84;;;9.84;100.00
15646;BME280;7922;43.622;1.476;2023-05-12T02:00:22;100094.91;;;9.44;99.62
15646;BME280;7922;43.622;1.476;2023-05-12T02:02:47;100175.91;;;9.71;99.50
15646;BME280;7922;43.622;1.476;2023-05-12T02:05:13;100186.00;;;9.85;100.00
15646;BME280;7922;43.622;1.476;2023-05-12T02:07:38;100131.53;;;9.54;100.00
15646;BME280;7922;43.622;1.476;2023-05-12T02:10:03;100125.94;;;9.63;100.00
15646;BME280;7922;43.622;1.476;2023-05-12T02:12:29;100167.81;;;9.76;99.58
15646;BME280;7922;43.622;1.476;2023-05-12T02:14:54;100169.41;;;9.80;100.00
15646;BME280;7922;43.622;1.476;2023-05-12T02:17:19;100168.50;;;9.81;99.92
15646;BME280;7922;43.622;1.476;2023-05-12T02:19:45;100170.34;;;9.79;100.00
15646;BME280;7922;43.622;1.476;2023-05-12T02:22:10;100159.66;;;9.82;100.00
15646;BME280;7922;43.622;1.476;2023-05-12T02:24:35;100175.72;;;9.76;100.00
15646;BME280;7922;43.622;1.476;2023-05-12T02:27:00;100186.78;;;9.87;100.00
15646;BME280;7922;43.622;1.476;2023-05-12T02:29:26;100166.25;;;9.70;100.00
15646;BME280;7922;43.622;1.476;2023-05-12T02:31:51;100123.59;;;9.54;100.00
15646;BME280;7922;43.622;1.476;2023-05-12T02:34:16;100157.41;;;9.71;100.00
15646;BME280;7922;43.622;1.476;2023-05-12T02:36:42;100170.13;;;9.85;100.00
15646;BME280;7922;43.622;1.476;2023-05-12T02:39:07;100198.59;;;10.02;100.00
15646;BME280;7922;43.622;1.476;2023-05-12T02:41:32;100182.34;;;9.87;100.00
15646;BME280;7922;43.622;1.476;2023-05-12T02:43:58;100113.00;;;9.56;100.00
15646;BME280;7922;43.622;1.476;2023-05-12T02:46:23;100114.88;;;9.52;100.00
15646;BME280;7922;43.622;1.476;2023-05-12T02:48:48;100162.97;;;9.87;100.00
15646;BME280;7922;43.622;1.476;2023-05-12T02:51:13;100158.97;;;9.77;100.00
15646;BME280;7922;43.622;1.476;2023-05-12T02:53:39;100191.69;;;9.98;100.00
15646;BME280;7922;43.622;1.476;2023-05-12T02:56:05;100178.00;;;9.86;100.00
15646;BME280;7922;43.622;1.476;2023-05-12T02:58:30;100146.72;;;9.74;100.00
15646;BME280;7922;43.622;1.476;2023-05-12T03:00:56;100085.25;;;9.43;100.00
15646;BME280;7922;43.622;1.476;2023-05-12T03:03:21;100158.69;;;9.84;100.00
15646;BME280;7922;43.622;1.476;2023-05-12T03:05:46;100177.59;;;9.97;100.00
15646;BME280;7922;43.622;1.476;2023-05-12T03:08:11;100153.59;;;9.78;100.00
15646;BME280;7922;43.622;1.476;2023-05-12T03:10:37;100127.47;;;9.69;100.00
15646;BME280;7922;43.622;1.476;2023-05-12T03:13:02;100165.63;;;9.87;100.00
15646;BME280;7922;43.622;1.476;2023-05-12T03:15:27;100150.97;;;9.78;100.00
15646;BME280;7922;43.622;1.476;2023-05-12T03:17:53;100130.50;;;9.58;100.00
15646;BME280;7922;43.622;1.476;2023-05-12T03:20:18;100159.47;;;9.86;100.00
15646;BME280;7922;43.622;1.476;2023-05-12T03:22:43;100150.00;;;9.81;100.00
15646;BME280;7922;43.622;1.476;2023-05-12T03:25:09;100159.47;;;9.86;100.00
15646;BME280;7922;43.622;1.476;2023-05-12T03:27:34;100148.25;;;9.80;100.00
15646;BME280;7922;43.622;1.476;2023-05-12T03:29:59;100151.53;;;9.86;100.00
15646;BME280;7922;43.622;1.476;2023-05-12T03:32:25;100088.88;;;9.40;100.00
15646;BME280;7922;43.622;1.476;2023-05-12T03:34:50;100093.75;;;9.51;100.00
15646;BME280;7922;43.622;1.476;2023-05-12T03:37:16;100133.38;;;9.77;100.00
15646;BME280;7922;43.622;1.476;2023-05-12T03:39:41;100133.47;;;9.74;100.00
15646;BME280;7922;43.622;1.476;2023-05-12T03:42:06;100132.38;;;9.80;100.00
15646;BME280;7922;43.622;1.476;2023-05-12T03:44:31;100093.63;;;9.55;100.00
15646;BME280;7922;43.622;1.476;2023-05-12T03:46:57;100079.00;;;9.45;100.00
15646;BME280;7922;43.622;1.476;2023-05-12T03:49:22;100076.34;;;9.45;100.00
15646;BME280;7922;43.622;1.476;2023-05-12T03:51:47;100085.31;;;9.41;100.00
15646;BME280;7922;43.622;1.476;2023-05-12T03:54:13;100094.91;;;9.44;100.00
15646;BME280;7922;43.622;1.476;2023-05-12T03:56:38;100144.91;;;9.75;100.00
15646;BME280;7922;43.622;1.476;2023-05-12T03:59:03;100152.28;;;9.90;100.00
15646;BME280;7922;43.622;1.476;2023-05-12T04:01:28;100133.47;;;9.74;100.00
15646;BME280;7922;43.622;1.476;2023-05-12T04:03:54;100168.63;;;10.01;100.00
15646;BME280;7922;43.622;1.476;2023-05-12T04:06:19;100127.97;;;9.80;100.00
15646;BME280;7922;43.622;1.476;2023-05-12T04:08:44;100167.66;;;10.04;100.00
15646;BME280;7922;43.622;1.476;2023-05-12T04:11:09;100137.44;;;9.86;100.00
15646;BME280;7922;43.622;1.476;2023-05-12T04:13:35;100129.41;;;9.89;100.00
15646;BME280;7922;43.622;1.476;2023-05-12T04:16:00;100097.69;;;9.64;100.00
15646;BME280;7922;43.622;1.476;2023-05-12T04:18:26;100127.53;;;9.91;100.00
15646;BME280;7922;43.622;1.476;2023-05-12T04:20:52;100113.72;;;9.84;100.00
15646;BME280;7922;43.622;1.476;2023-05-12T04:23:18;100098.16;;;9.75;100.00
15646;BME280;7922;43.622;1.476;2023-05-12T04:25:43;100120.94;;;9.79;100.00
15646;BME280;7922;43.622;1.476;2023-05-12T04:28:09;100081.75;;;9.65;100.00
15646;BME280;7922;43.622;1.476;2023-05-12T04:30:38;100081.84;;;9.64;100.00
15646;BME280;7922;43.622;1.476;2023-05-12T04:33:03;100123.00;;;9.95;100.00
15646;BME280;7922;43.622;1.476;2023-05-12T04:35:29;100094.59;;;9.76;100.00
15646;BME280;7922;43.622;1.476;2023-05-12T04:37:54;100103.91;;;9.86;100.00
15646;BME280;7922;43.622;1.476;2023-05-12T04:40:19;100136.66;;;10.07;100.00
15646;BME280;7922;43.622;1.476;2023-05-12T04:42:44;100146.16;;;10.13;100.00
15646;BME280;7922;43.622;1.476;2023-05-12T04:45:10;100142.75;;;10.09;100.00
15646;BME280;7922;43.622;1.476;2023-05-12T04:47:35;100094.72;;;9.73;100.00
15646;BME280;7922;43.622;1.476;2023-05-12T04:50:01;100154.88;;;10.15;100.00
15646;BME280;7922;43.622;1.476;2023-05-12T04:52:26;100150.50;;;10.14;100.00
15646;BME280;7922;43.622;1.476;2023-05-12T04:54:51;100145.75;;;10.00;100.00
15646;BME280;7922;43.622;1.476;2023-05-12T04:57:17;100141.31;;;10.01;100.00
15646;BME280;7922;43.622;1.476;2023-05-12T04:59:42;100145.56;;;10.05;100.00
15646;BME280;7922;43.622;1.476;2023-05-12T05:02:08;100160.28;;;10.12;100.00
15646;BME280;7922;43.622;1.476;2023-05-12T05:04:33;100090.13;;;9.78;100.00
15646;BME280;7922;43.622;1.476;2023-05-12T05:06:59;100137.50;;;10.08;100.00
15646;BME280;7922;43.622;1.476;2023-05-12T05:09:24;100098.88;;;9.80;100.00
15646;BME280;7922;43.622;1.476;2023-05-12T05:11:49;100165.00;;;10.04;100.00
15646;BME280;7922;43.622;1.476;2023-05-12T05:14:15;100093.06;;;9.71;100.00
15646;BME280;7922;43.622;1.476;2023-05-12T05:16:40;100176.88;;;10.17;100.00
15646;BME280;7922;43.622;1.476;2023-05-12T05:19:05;100154.00;;;9.91;100.00
15646;BME280;7922;43.622;1.476;2023-05-12T05:21:30;100179.09;;;10.04;100.00
15646;BME280;7922;43.622;1.476;2023-05-12T05:23:56;100121.28;;;9.70;100.00
15646;BME280;7922;43.622;1.476;2023-05-12T05:26:21;100129.16;;;9.72;100.00
15646;BME280;7922;43.622;1.476;2023-05-12T05:28:46;100173.16;;;9.98;100.00
15646;BME280;7922;43.622;1.476;2023-05-12T05:31:15;100162.75;;;9.93;100.00
15646;BME280;7922;43.622;1.476;2023-05-12T05:33:40;100176.84;;;9.94;100.00
15646;BME280;7922;43.622;1.476;2023-05-12T05:36:06;100168.97;;;9.92;100.00
15646;BME280;7922;43.622;1.476;2023-05-12T05:38:32;100123.00;;;9.71;100.00
15646;BME280;7922;43.622;1.476;2023-05-12T05:40:57;100178.47;;;9.98;100.00
15646;BME280;7922;43.622;1.476;2023-05-12T05:43:22;100114.78;;;9.55;100.00
15646;BME280;7922;43.622;1.476;2023-05-12T05:45:48;100176.25;;;10.10;100.00
15646;BME280;7922;43.622;1.476;2023-05-12T05:48:13;100203.22;;;10.20;100.00
15646;BME280;7922;43.622;1.476;2023-05-12T05:50:38;100113.25;;;9.73;100.00
15646;BME280;7922;43.622;1.476;2023-05-12T05:53:03;100106.31;;;9.69;100.00
15646;BME280;7922;43.622;1.476;2023-05-12T05:55:29;100119.97;;;9.82;100.00
15646;BME280;7922;43.622;1.476;2023-05-12T05:57:54;100133.38;;;10.01;100.00
15646;BME280;7922;43.622;1.476;2023-05-12T06:00:19;100172.06;;;10.28;100.00
15646;BME280;7922;43.622;1.476;2023-05-12T06:02:45;100171.22;;;10.28;100.00
15646;BME280;7922;43.622;1.476;2023-05-12T06:05:10;100183.56;;;10.27;100.00
15646;BME280;7922;43.622;1.476;2023-05-12T06:07:35;100189.25;;;10.40;100.00
15646;BME280;7922;43.622;1.476;2023-05-12T06:10:00;100198.88;;;10.43;100.00
15646;BME280;7922;43.622;1.476;2023-05-12T06:12:26;100116.84;;;10.18;100.00
15646;BME280;7922;43.622;1.476;2023-05-12T06:14:51;100165.13;;;10.70;100.00
15646;BME280;7922;43.622;1.476;2023-05-12T06:17:16;100111.31;;;10.47;99.57
15646;BME280;7922;43.622;1.476;2023-05-12T06:19:41;100173.47;;;10.82;99.77
15646;BME280;7922;43.622;1.476;2023-05-12T06:22:07;100106.31;;;10.40;98.06
15646;BME280;7922;43.622;1.476;2023-05-12T06:24:32;100187.31;;;11.11;98.64
15646;BME280;7922;43.622;1.476;2023-05-12T06:26:57;100173.91;;;10.94;97.94
15646;BME280;7922;43.622;1.476;2023-05-12T06:29:22;100127.41;;;10.85;98.09
15646;BME280;7922;43.622;1.476;2023-05-12T06:31:48;100141.03;;;11.18;97.69
15646;BME280;7922;43.622;1.476;2023-05-12T06:34:13;100132.19;;;11.19;96.11
15646;BME280;7922;43.622;1.476;2023-05-12T06:36:38;100128.22;;;10.87;95.02
15646;BME280;7922;43.622;1.476;2023-05-12T06:39:04;100181.66;;;10.76;96.95
15646;BME280;7922;43.622;1.476;2023-05-12T06:41:29;100107.91;;;10.44;98.18
15646;BME280;7922;43.622;1.476;2023-05-12T06:43:55;100111.38;;;10.46;97.84
15646;BME280;7922;43.622;1.476;2023-05-12T06:46:20;100112.66;;;10.35;98.12
15646;BME280;7922;43.622;1.476;2023-05-12T06:48:45;100181.16;;;10.89;98.12
15646;BME280;7922;43.622;1.476;2023-05-12T06:51:11;100137.66;;;10.72;96.32
15646;BME280;7922;43.622;1.476;2023-05-12T06:53:36;100160.88;;;10.88;96.67
15646;BME280;7922;43.622;1.476;2023-05-12T06:56:03;100118.63;;;10.63;96.56
15646;BME280;7922;43.622;1.476;2023-05-12T06:58:28;100174.13;;;10.88;98.03
15646;BME280;7922;43.622;1.476;2023-05-12T07:00:53;100129.53;;;10.77;96.45
15646;BME280;7922;43.622;1.476;2023-05-12T07:03:19;100171.78;;;11.02;96.99
15646;BME280;7922;43.622;1.476;2023-05-12T07:05:44;100173.69;;;11.20;96.37
15646;BME280;7922;43.622;1.476;2023-05-12T07:08:09;100179.63;;;11.25;94.99
15646;BME280;7922;43.622;1.476;2023-05-12T07:10:34;100130.22;;;11.02;96.06
15646;BME280;7922;43.622;1.476;2023-05-12T07:13:00;100150.72;;;10.99;95.35
15646;BME280;7922;43.622;1.476;2023-05-12T07:15:28;100145.28;;;11.02;95.59
15646;BME280;7922;43.622;1.476;2023-05-12T07:17:53;100192.66;;;11.31;95.03
15646;BME280;7922;43.622;1.476;2023-05-12T07:20:18;100213.94;;;11.50;95.36
15646;BME280;7922;43.622;1.476;2023-05-12T07:22:43;100118.97;;;10.97;94.11
15646;BME280;7922;43.622;1.476;2023-05-12T07:25:09;100185.00;;;11.24;94.85
15646;BME280;7922;43.622;1.476;2023-05-12T07:27:34;100178.97;;;11.20;94.30
15646;BME280;7922;43.622;1.476;2023-05-12T07:29:59;100210.97;;;11.38;93.07
15646;BME280;7922;43.622;1.476;2023-05-12T07:32:25;100184.00;;;11.06;93.02
15646;BME280;7922;43.622;1.476;2023-05-12T07:34:50;100204.84;;;11.15;94.00
15646;BME280;7922;43.622;1.476;2023-05-12T07:37:15;100145.63;;;10.72;94.53
15646;BME280;7922;43.622;1.476;2023-05-12T07:39:40;100140.78;;;10.82;94.57
15646;BME280;7922;43.622;1.476;2023-05-12T07:42:06;100206.03;;;11.28;94.17
15646;BME280;7922;43.622;1.476;2023-05-12T07:44:31;100130.63;;;10.93;94.30
15646;BME280;7922;43.622;1.476;2023-05-12T07:46:57;100184.16;;;11.23;93.79
15646;BME280;7922;43.622;1.476;2023-05-12T07:49:22;100194.44;;;11.31;93.74
15646;BME280;7922;43.622;1.476;2023-05-12T07:51:47;100168.16;;;11.25;94.34
15646;BME280;7922;43.622;1.476;2023-05-12T07:54:13;100169.94;;;11.04;94.88
15646;BME280;7922;43.622;1.476;2023-05-12T07:56:38;100169.63;;;11.12;95.45
15646;BME280;7922;43.622;1.476;2023-05-12T07:59:03;100192.66;;;11.52;95.45
15646;BME280;7922;43.622;1.476;2023-05-12T08:01:28;100144.03;;;11.72;93.61
15646;BME280;7922;43.622;1.476;2023-05-12T08:03:54;100184.69;;;12.13;91.42
15646;BME280;7922;43.622;1.476;2023-05-12T08:06:19;100186.28;;;11.97;90.01
15646;BME280;7922;43.622;1.476;2023-05-12T08:08:44;100142.59;;;12.04;90.69
15646;BME280;7922;43.622;1.476;2023-05-12T08:11:10;100192.81;;;12.29;89.97
15646;BME280;7922;43.622;1.476;2023-05-12T08:13:36;100132.56;;;11.71;89.50
15646;BME280;7922;43.622;1.476;2023-05-12T08:16:01;100179.66;;;12.26;89.58
15646;BME280;7922;43.622;1.476;2023-05-12T08:18:26;100182.66;;;12.56;89.22
15646;BME280;7922;43.622;1.476;2023-05-12T08:20:52;100173.25;;;12.68;86.94
15646;BME280;7922;43.622;1.476;2023-05-12T08:23:17;100219.44;;;12.46;86.38
15646;BME280;7922;43.622;1.476;2023-05-12T08:25:43;100207.94;;;12.27;88.25
15646;BME280;7922;43.622;1.476;2023-05-12T08:28:08;100198.19;;;11.88;88.83
15646;BME280;7922;43.622;1.476;2023-05-12T08:30:33;100180.97;;;11.97;89.53
15646;BME280;7922;43.622;1.476;2023-05-12T08:32:59;100187.56;;;12.27;88.23
15646;BME280;7922;43.622;1.476;2023-05-12T08:35:25;100193.91;;;12.04;89.19
15646;BME280;7922;43.622;1.476;2023-05-12T08:37:50;100206.81;;;11.93;89.86
15646;BME280;7922;43.622;1.476;2023-05-12T08:40:23;100218.72;;;12.24;89.96
15646;BME280;7922;43.622;1.476;2023-05-12T08:43:23;100216.94;;;12.43;88.09
15646;BME280;7922;43.622;1.476;2023-05-12T08:45:49;100190.88;;;12.33;86.71
15646;BME280;7922;43.622;1.476;2023-05-12T08:48:16;100207.44;;;12.38;86.70
15646;BME280;7922;43.622;1.476;2023-05-12T08:50:43;100198.31;;;12.62;85.89
15646;BME280;7922;43.622;1.476;2023-05-12T08:53:10;100126.47;;;12.46;84.69
15646;BME280;7922;43.622;1.476;2023-05-12T08:55:36;100139.72;;;12.65;83.98
15646;BME280;7922;43.622;1.476;2023-05-12T08:58:03;100194.34;;;12.90;83.04
15646;BME280;7922;43.622;1.476;2023-05-12T09:00:29;100202.34;;;13.26;81.87
15646;BME280;7922;43.622;1.476;2023-05-12T09:02:56;100160.31;;;13.50;79.96
15646;BME280;7922;43.622;1.476;2023-05-12T09:05:23;100209.25;;;13.30;80.91
15646;BME280;7922;43.622;1.476;2023-05-12T09:07:52;100164.25;;;12.89;82.07
15646;BME280;7922;43.622;1.476;2023-05-12T09:10:18;100199.25;;;13.16;80.97
15646;BME280;7922;43.622;1.476;2023-05-12T09:12:45;100204.13;;;13.95;80.12
15646;BME280;7922;43.622;1.476;2023-05-12T09:15:14;100223.88;;;13.56;79.02
15646;BME280;7922;43.622;1.476;2023-05-12T09:17:42;100226.22;;;13.28;80.05
15646;BME280;7922;43.622;1.476;2023-05-12T09:20:08;100191.34;;;12.79;82.22
15646;BME280;7922;43.622;1.476;2023-05-12T09:22:34;100181.75;;;12.57;81.71
15646;BME280;7922;43.622;1.476;2023-05-12T09:24:59;100206.22;;;12.45;82.36
15646;BME280;7922;43.622;1.476;2023-05-12T09:27:28;100147.28;;;12.18;81.69
15646;BME280;7922;43.622;1.476;2023-05-12T09:29:54;100216.69;;;12.67;81.60
15646;BME280;7922;43.622;1.476;2023-05-12T09:32:32;100205.06;;;12.69;81.51
15646;BME280;7922;43.622;1.476;2023-05-12T09:35:05;100215.34;;;12.58;81.69
15646;BME280;7922;43.622;1.476;2023-05-12T09:37:33;100200.19;;;12.79;81.12
15646;BME280;7922;43.622;1.476;2023-05-12T09:40:05;100161.97;;;12.63;81.46
15646;BME280;7922;43.622;1.476;2023-05-12T09:42:32;100212.47;;;13.18;80.48
15646;BME280;7922;43.622;1.476;2023-05-12T09:47:27;100223.56;;;13.45;78.74
15646;BME280;7922;43.622;1.476;2023-05-12T09:49:53;100180.91;;;13.46;77.04
15646;BME280;7922;43.622;1.476;2023-05-12T09:52:19;100203.75;;;13.51;77.07
15646;BME280;7922;43.622;1.476;2023-05-12T09:54:46;100224.38;;;13.97;76.18
15646;BME280;7922;43.622;1.476;2023-05-12T09:57:14;100171.09;;;13.82;74.08
15646;BME280;7922;43.622;1.476;2023-05-12T09:59:40;100188.00;;;13.29;80.28
15646;BME280;7922;43.622;1.476;2023-05-12T10:02:07;100141.88;;;13.11;81.79
15646;BME280;7922;43.622;1.476;2023-05-12T10:05:00;100224.63;;;13.23;86.52
15646;BME280;7922;43.622;1.476;2023-05-12T10:07:29;100227.63;;;13.35;88.69
15646;BME280;7922;43.622;1.476;2023-05-12T10:09:58;100219.88;;;13.30;86.46
15646;BME280;7922;43.622;1.476;2023-05-12T10:12:24;100167.44;;;12.96;89.08
15646;BME280;7922;43.622;1.476;2023-05-12T10:14:50;100170.34;;;13.45;87.54
15646;BME280;7922;43.622;1.476;2023-05-12T10:17:18;100219.97;;;13.98;84.12
15646;BME280;7922;43.622;1.476;2023-05-12T10:19:43;100220.31;;;13.90;84.09
15646;BME280;7922;43.622;1.476;2023-05-12T10:22:11;100212.88;;;13.97;84.83
15646;BME280;7922;43.622;1.476;2023-05-12T10:24:42;100164.50;;;13.89;84.62
15646;BME280;7922;43.622;1.476;2023-05-12T10:27:09;100135.88;;;13.77;80.92
15646;BME280;7922;43.622;1.476;2023-05-12T10:29:36;100184.41;;;13.82;81.03
15646;BME280;7922;43.622;1.476;2023-05-12T10:32:03;100149.50;;;13.70;82.29
15646;BME280;7922;43.622;1.476;2023-05-12T10:34:36;100127.06;;;13.41;81.33
15646;BME280;7922;43.622;1.476;2023-05-12T10:37:04;100171.75;;;14.03;81.53
15646;BME280;7922;43.622;1.476;2023-05-12T10:39:30;100150.94;;;13.93;83.10
15646;BME280;7922;43.622;1.476;2023-05-12T10:42:06;100151.06;;;13.75;81.89
15646;BME280;7922;43.622;1.476;2023-05-12T10:44:31;100173.06;;;13.61;79.85
15646;BME280;7922;43.622;1.476;2023-05-12T10:46:57;100118.38;;;13.55;81.67
15646;BME280;7922;43.622;1.476;2023-05-12T10:49:34;100194.63;;;14.07;79.50
15646;BME280;7922;43.622;1.476;2023-05-12T10:52:04;100169.69;;;13.75;77.19
15646;BME280;7922;43.622;1.476;2023-05-12T10:54:36;100145.63;;;13.76;78.03
15646;BME280;7922;43.622;1.476;2023-05-12T10:57:11;100114.69;;;13.91;75.98
15646;BME280;7922;43.622;1.476;2023-05-12T10:59:49;100162.03;;;14.66;77.84
15646;BME280;7922;43.622;1.476;2023-05-12T11:02:19;100123.94;;;15.10;75.13
15646;BME280;7922;43.622;1.476;2023-05-12T11:04:58;100163.41;;;15.50;71.64
15646;BME280;7922;43.622;1.476;2023-05-12T11:07:25;100087.97;;;15.76;71.44
15646;BME280;7922;43.622;1.476;2023-05-12T11:09:55;100097.03;;;14.99;70.15
15646;BME280;7922;43.622;1.476;2023-05-12T11:12:21;100151.78;;;16.24;68.66
15646;BME280;7922;43.622;1.476;2023-05-12T11:14:46;100147.13;;;16.13;69.36
15646;BME280;7922;43.622;1.476;2023-05-12T11:17:12;100157.41;;;16.05;69.95
15646;BME280;7922;43.622;1.476;2023-05-12T11:19:38;100141.28;;;15.33;68.15
15646;BME280;7922;43.622;1.476;2023-05-12T11:22:08;100153.03;;;15.15;68.46
15646;BME280;7922;43.622;1.476;2023-05-12T11:24:38;100137.25;;;14.96;68.81
15646;BME280;7922;43.622;1.476;2023-05-12T11:27:04;100130.66;;;14.72;69.24
15646;BME280;7922;43.622;1.476;2023-05-12T11:29:30;100151.69;;;15.08;70.15
15646;BME280;7922;43.622;1.476;2023-05-12T11:31:55;100143.28;;;14.84;68.04
15646;BME280;7922;43.622;1.476;2023-05-12T11:34:22;100067.03;;;14.02;66.94
15646;BME280;7922;43.622;1.476;2023-05-12T11:36:49;100105.84;;;14.06;70.86
15646;BME280;7922;43.622;1.476;2023-05-12T11:39:19;100144.09;;;14.05;71.51
15646;BME280;7922;43.622;1.476;2023-05-12T11:41:46;100149.94;;;14.12;75.32
15646;BME280;7922;43.622;1.476;2023-05-12T11:44:22;100136.59;;;13.63;73.76
15646;BME280;7922;43.622;1.476;2023-05-12T11:46:58;100134.31;;;13.72;77.07
15646;BME280;7922;43.622;1.476;2023-05-12T11:49:28;100105.19;;;13.69;76.01
15646;BME280;7922;43.622;1.476;2023-05-12T11:51:55;100131.31;;;13.79;76.85
15646;BME280;7922;43.622;1.476;2023-05-12T11:54:21;100091.78;;;13.71;78.54
15646;BME280;7922;43.622;1.476;2023-05-12T11:56:51;100086.25;;;13.91;79.13
15646;BME280;7922;43.622;1.476;2023-05-12T11:59:34;100111.94;;;13.92;76.40
15646;BME280;7922;43.622;1.476;2023-05-12T12:02:01;100132.81;;;14.00;78.98
15646;BME280;7922;43.622;1.476;2023-05-12T12:04:37;100116.41;;;13.92;77.97
15646;BME280;7922;43.622;1.476;2023-05-12T12:07:07;100063.19;;;13.75;71.29
15646;BME280;7922;43.622;1.476;2023-05-12T12:09:34;100103.53;;;14.00;69.56
15646;BME280;7922;43.622;1.476;2023-05-12T12:12:00;100087.31;;;14.20;69.44
15646;BME280;7922;43.622;1.476;2023-05-12T12:14:26;100083.94;;;14.49;68.23
15646;BME280;7922;43.622;1.476;2023-05-12T12:16:52;100087.13;;;14.55;67.84
15646;BME280;7922;43.622;1.476;2023-05-12T12:19:17;100094.28;;;14.71;66.06
15646;BME280;7922;43.622;1.476;2023-05-12T12:21:42;100096.44;;;14.94;65.42
15646;BME280;7922;43.622;1.476;2023-05-12T12:24:08;100076.97;;;15.08;66.44
15646;BME280;7922;43.622;1.476;2023-05-12T12:26:33;100021.41;;;15.00;65.29
15646;BME280;7922;43.622;1.476;2023-05-12T12:29:01;100027.78;;;14.98;61.17
15646;BME280;7922;43.622;1.476;2023-05-12T12:31:26;100078.44;;;15.42;62.28
15646;BME280;7922;43.622;1.476;2023-05-12T12:33:51;100076.88;;;15.68;62.15
15646;BME280;7922;43.622;1.476;2023-05-12T12:36:17;100022.50;;;15.55;58.60
15646;BME280;7922;43.622;1.476;2023-05-12T12:38:42;100061.78;;;16.10;60.06
15646;BME280;7922;43.622;1.476;2023-05-12T12:41:07;100016.50;;;15.37;60.51
15646;BME280;7922;43.622;1.476;2023-05-12T12:43:32;100039.59;;;16.22;60.78
15646;BME280;7922;43.622;1.476;2023-05-12T12:45:58;100052.69;;;16.81;58.82
15646;BME280;7922;43.622;1.476;2023-05-12T12:48:23;100064.28;;;16.40;60.37
15646;BME280;7922;43.622;1.476;2023-05-12T12:50:48;100014.72;;;16.89;60.28
15646;BME280;7922;43.622;1.476;2023-05-12T12:53:14;100070.84;;;17.16;58.76
15646;BME280;7922;43.622;1.476;2023-05-12T12:55:39;100051.78;;;17.20;58.81
15646;BME280;7922;43.622;1.476;2023-05-12T12:58:05;100051.16;;;17.42;55.88